createdAt,value
2018-07-08T00:00:41.745Z,20.60
2018-07-08T00:04:14.994Z,20.60
2018-07-08T00:07:49.256Z,20.50
2018-07-08T00:11:22.495Z,20.50
2018-07-08T00:14:55.732Z,20.40
2018-07-08T00:18:28.990Z,20.40
2018-07-08T00:22:02.211Z,20.30
2018-07-08T00:25:35.485Z,20.30
2018-07-08T00:29:08.708Z,20.20
2018-07-08T00:32:41.944Z,20.20
2018-07-08T00:36:15.160Z,20.10
2018-07-08T00:39:48.438Z,20.00
2018-07-08T00:43:21.697Z,20.00
2018-07-08T00:50:27.917Z,19.90
2018-07-08T00:54:01.391Z,19.90
2018-07-08T00:57:35.050Z,19.80
2018-07-08T01:01:08.289Z,19.80
2018-07-08T01:04:41.525Z,19.80
2018-07-08T01:08:14.756Z,19.70
2018-07-08T01:11:47.990Z,19.70
2018-07-08T01:18:54.585Z,19.50
2018-07-08T01:22:27.884Z,19.40
2018-07-08T01:29:41.898Z,19.40
2018-07-08T01:33:15.152Z,19.30
2018-07-08T01:36:48.379Z,19.30
2018-07-08T01:40:21.603Z,19.20
2018-07-08T01:43:54.827Z,19.20
2018-07-08T01:47:28.056Z,19.20
2018-07-08T01:51:01.273Z,19.20
2018-07-08T01:54:34.523Z,19.10
2018-07-08T01:58:07.758Z,19.10
2018-07-08T02:01:41.011Z,19.00
2018-07-08T02:05:14.268Z,18.90
2018-07-08T02:12:20.650Z,18.90
2018-07-08T02:19:26.894Z,18.80
2018-07-08T02:23:00.141Z,18.80
2018-07-08T02:26:33.368Z,18.80
2018-07-08T02:30:06.659Z,18.70
2018-07-08T02:33:39.913Z,18.70
2018-07-08T02:37:13.174Z,18.60
2018-07-08T02:40:46.385Z,18.60
2018-07-08T02:44:19.612Z,18.50
2018-07-08T02:47:52.865Z,18.40
2018-07-08T02:51:26.129Z,18.30
2018-07-08T02:54:59.442Z,18.30
2018-07-08T02:58:32.862Z,18.30
2018-07-08T03:02:06.123Z,18.30
2018-07-08T03:05:39.384Z,18.30
2018-07-08T03:09:12.608Z,18.30
2018-07-08T03:12:46.773Z,18.30
2018-07-08T03:19:52.988Z,18.20
2018-07-08T03:23:26.225Z,18.10
2018-07-08T03:26:59.462Z,18.00
2018-07-08T03:30:32.704Z,18.00
2018-07-08T03:34:05.933Z,18.00
2018-07-08T03:37:39.154Z,17.90
2018-07-08T03:41:12.383Z,17.80
2018-07-08T03:44:45.631Z,17.80
2018-07-08T03:48:18.847Z,17.90
2018-07-08T03:51:52.085Z,17.80
2018-07-08T03:55:25.326Z,17.80
2018-07-08T03:58:58.556Z,17.80
2018-07-08T04:02:31.784Z,17.80
2018-07-08T04:06:05.269Z,17.80
2018-07-08T04:13:11.460Z,17.80
2018-07-08T04:16:45.081Z,17.80
2018-07-08T04:20:18.324Z,17.80
2018-07-08T04:23:51.565Z,17.80
2018-07-08T04:27:24.790Z,17.80
2018-07-08T04:30:58.031Z,17.80
2018-07-08T04:34:32.420Z,17.90
2018-07-08T04:38:05.644Z,17.90
2018-07-08T04:41:38.903Z,17.80
2018-07-08T04:45:12.127Z,17.90
2018-07-08T04:48:45.352Z,17.90
2018-07-08T04:52:18.572Z,18.00
2018-07-08T04:55:51.812Z,18.00
2018-07-08T04:59:25.035Z,18.00
2018-07-08T05:02:58.256Z,18.00
2018-07-08T05:06:31.482Z,18.10
2018-07-08T05:13:37.716Z,18.20
2018-07-08T05:17:11.177Z,18.30
2018-07-08T05:20:44.448Z,18.30
2018-07-08T05:24:17.704Z,18.30
2018-07-08T05:27:50.977Z,18.40
2018-07-08T05:31:24.204Z,18.50
2018-07-08T05:34:57.451Z,18.60
2018-07-08T05:38:30.688Z,18.60
2018-07-08T05:42:03.908Z,18.70
2018-07-08T05:45:37.144Z,18.80
2018-07-08T05:49:10.367Z,18.90
2018-07-08T05:52:43.596Z,18.90
2018-07-08T05:59:49.833Z,19.10
2018-07-08T06:03:23.077Z,19.20
2018-07-08T06:06:56.308Z,19.30
2018-07-08T06:10:29.535Z,19.40
2018-07-08T06:14:02.763Z,19.50
2018-07-08T06:17:36.014Z,19.60
2018-07-08T06:21:09.240Z,19.60
2018-07-08T06:24:42.477Z,19.60
2018-07-08T06:31:48.729Z,19.50
2018-07-08T06:35:21.949Z,19.50
2018-07-08T06:38:55.216Z,19.60
2018-07-08T06:42:28.429Z,19.70
2018-07-08T06:46:01.656Z,19.70
2018-07-08T06:49:34.889Z,19.80
2018-07-08T06:53:08.103Z,19.90
2018-07-08T06:56:41.349Z,19.90
2018-07-08T07:00:14.576Z,19.90
2018-07-08T07:03:47.917Z,19.90
2018-07-08T07:07:21.271Z,19.90
2018-07-08T07:10:54.555Z,19.90
2018-07-08T07:14:27.905Z,20.00
2018-07-08T07:18:01.130Z,20.20
2018-07-08T07:21:34.449Z,20.30
2018-07-08T07:25:08.308Z,20.50
2018-07-08T07:28:41.610Z,20.60
2018-07-08T07:32:14.789Z,20.60
2018-07-08T07:39:21.003Z,20.70
2018-07-08T07:42:54.472Z,20.90
2018-07-08T07:46:27.789Z,21.10
2018-07-08T07:53:33.996Z,21.40
2018-07-08T07:57:07.300Z,21.40
2018-07-08T08:00:40.583Z,21.50
2018-07-08T08:04:13.829Z,21.70
2018-07-08T08:07:47.066Z,21.90
2018-07-08T08:11:20.544Z,22.00
2018-07-08T08:14:53.972Z,22.10
2018-07-08T08:18:27.253Z,22.20
2018-07-08T08:22:00.484Z,22.30
2018-07-08T08:29:06.800Z,22.40
2018-07-08T08:32:40.059Z,22.50
2018-07-08T08:36:13.300Z,22.60
2018-07-08T08:39:46.524Z,22.60
2018-07-08T08:43:19.752Z,22.60
2018-07-08T08:46:52.992Z,22.70
2018-07-08T08:50:26.236Z,22.80
2018-07-08T08:53:59.459Z,22.90
2018-07-08T08:57:32.684Z,23.00
2018-07-08T09:01:05.928Z,23.00
2018-07-08T09:04:40.019Z,23.10
2018-07-08T09:08:13.271Z,23.20
2018-07-08T09:11:46.828Z,23.50
2018-07-08T09:15:20.152Z,23.60
2018-07-08T09:18:53.395Z,23.70
2018-07-08T09:22:26.644Z,23.70
2018-07-08T09:25:59.880Z,23.70
2018-07-08T09:29:33.213Z,23.70
2018-07-08T09:36:40.772Z,24.00
2018-07-08T09:40:14.040Z,24.10
2018-07-08T09:43:47.431Z,24.30
2018-07-08T09:50:53.652Z,24.50
2018-07-08T09:54:26.884Z,24.60
2018-07-08T09:58:00.129Z,24.80
2018-07-08T10:01:50.138Z,25.00
2018-07-08T10:05:23.364Z,25.00
2018-07-08T10:08:56.597Z,24.90
2018-07-08T10:12:29.834Z,24.90
2018-07-08T10:16:03.082Z,24.80
2018-07-08T10:19:36.353Z,24.90
2018-07-08T10:23:09.561Z,24.90
2018-07-08T10:26:42.808Z,24.90
2018-07-08T10:30:16.318Z,25.00
2018-07-08T10:33:55.718Z,25.10
2018-07-08T10:37:29.243Z,25.20
2018-07-08T10:41:02.498Z,25.20
2018-07-08T10:44:36.073Z,25.20
2018-07-08T10:48:09.325Z,25.20
2018-07-08T10:51:42.600Z,25.30
2018-07-08T10:55:18.375Z,25.40
2018-07-08T10:58:51.639Z,25.60
2018-07-08T11:05:57.896Z,25.70
2018-07-08T11:09:31.186Z,25.80
2018-07-08T11:13:04.437Z,25.80
2018-07-08T11:16:37.696Z,25.80
2018-07-08T11:20:11.136Z,25.80
2018-07-08T11:27:17.412Z,25.80
2018-07-08T11:30:50.649Z,25.70
2018-07-08T11:34:23.884Z,25.50
2018-07-08T11:37:57.132Z,25.60
2018-07-08T11:41:30.411Z,25.60
2018-07-08T11:45:03.908Z,25.60
2018-07-08T11:48:37.168Z,25.60
2018-07-08T11:52:10.448Z,25.60
2018-07-08T11:55:43.681Z,25.60
2018-07-08T11:59:16.921Z,25.70
2018-07-08T12:02:50.210Z,25.80
2018-07-08T12:06:23.518Z,25.80
2018-07-08T12:09:56.736Z,25.90
2018-07-08T12:17:03.044Z,25.90
2018-07-08T12:20:36.545Z,25.90
2018-07-08T12:24:09.797Z,25.90
2018-07-08T12:27:43.069Z,26.00
2018-07-08T12:31:16.276Z,25.90
2018-07-08T12:34:49.621Z,26.00
2018-07-08T12:38:22.864Z,26.00
2018-07-08T12:41:56.100Z,26.10
2018-07-08T12:45:29.464Z,26.10
2018-07-08T12:49:03.104Z,26.10
2018-07-08T12:52:36.335Z,26.00
2018-07-08T12:56:09.571Z,25.90
2018-07-08T12:59:43.180Z,25.90
2018-07-08T13:03:16.634Z,26.00
2018-07-08T13:06:50.147Z,26.10
2018-07-08T13:10:23.384Z,26.10
2018-07-08T13:13:56.977Z,26.20
2018-07-08T13:21:03.801Z,26.50
2018-07-08T13:24:38.333Z,26.60
2018-07-08T13:28:11.821Z,26.80
2018-07-08T13:35:18.803Z,27.10
2018-07-08T13:38:52.367Z,27.30
2018-07-08T13:45:58.877Z,27.60
2018-07-08T13:49:32.273Z,27.80
2018-07-08T13:53:05.543Z,28.00
2018-07-08T13:56:38.772Z,28.10
2018-07-08T14:00:12.040Z,28.40
2018-07-08T14:07:18.522Z,28.90
2018-07-08T14:10:52.055Z,29.10
2018-07-08T14:14:25.508Z,29.10
2018-07-08T14:17:58.749Z,29.10
2018-07-08T14:21:33.567Z,29.30
2018-07-08T14:28:39.862Z,29.60
2018-07-08T14:32:13.493Z,29.80
2018-07-08T14:39:19.713Z,30.00
2018-07-08T14:42:53.018Z,30.30
2018-07-08T14:46:26.303Z,30.50
2018-07-08T14:49:59.557Z,30.70
2018-07-08T14:53:32.859Z,30.80
2018-07-08T14:57:06.163Z,31.00
2018-07-08T15:00:39.461Z,31.20
2018-07-08T15:04:12.765Z,31.40
2018-07-08T15:07:46.040Z,31.60
2018-07-08T15:11:19.348Z,31.70
2018-07-08T15:14:52.633Z,31.80
2018-07-08T15:18:26.045Z,32.00
2018-07-08T15:21:59.339Z,32.20
2018-07-08T15:25:32.670Z,32.00
2018-07-08T15:29:06.025Z,32.20
2018-07-08T15:32:39.481Z,32.50
2018-07-08T15:36:13.533Z,32.80
2018-07-08T15:39:46.905Z,33.10
2018-07-08T15:43:20.147Z,33.50
2018-07-08T15:46:53.484Z,33.60
2018-07-08T15:50:26.669Z,33.70
2018-07-08T15:53:59.992Z,33.70
2018-07-08T15:57:33.241Z,33.90
2018-07-08T16:01:06.507Z,33.90
2018-07-08T16:04:39.768Z,34.00
2018-07-08T16:08:13.004Z,34.10
2018-07-08T16:11:46.274Z,34.10
2018-07-08T16:15:19.488Z,34.20
2018-07-08T16:18:52.767Z,34.30
2018-07-08T16:22:26.003Z,34.50
2018-07-08T16:25:59.825Z,34.70
2018-07-08T16:29:33.085Z,34.50
2018-07-08T16:33:06.330Z,33.90
2018-07-08T16:36:39.829Z,33.10
2018-07-08T16:40:23.929Z,32.40
2018-07-08T16:43:57.234Z,31.80
2018-07-08T16:47:30.495Z,31.20
2018-07-08T16:51:03.773Z,30.70
2018-07-08T16:54:36.999Z,30.30
2018-07-08T16:58:10.357Z,30.10
2018-07-08T17:01:43.612Z,29.90
2018-07-08T17:05:16.864Z,29.80
2018-07-08T17:08:50.141Z,29.70
2018-07-08T17:12:23.399Z,29.70
2018-07-08T17:15:56.642Z,29.70
2018-07-08T17:19:29.967Z,29.60
2018-07-08T17:23:03.229Z,29.50
2018-07-08T17:26:36.659Z,29.50
2018-07-08T17:30:10.207Z,29.50
2018-07-08T17:33:43.460Z,29.50
2018-07-08T17:37:16.705Z,29.40
2018-07-08T17:40:49.965Z,29.30
2018-07-08T17:44:23.210Z,29.30
2018-07-08T17:47:56.492Z,29.10
2018-07-08T17:51:29.724Z,29.10
2018-07-08T17:55:03.085Z,29.00
2018-07-08T17:58:36.343Z,28.80
2018-07-08T18:02:09.612Z,28.70
2018-07-08T18:05:43.543Z,28.60
2018-07-08T18:09:16.854Z,28.50
2018-07-08T18:12:50.096Z,28.30
2018-07-08T18:16:23.475Z,28.20
2018-07-08T18:19:56.748Z,28.10
2018-07-08T18:23:29.996Z,28.00
2018-07-08T18:27:03.246Z,27.80
2018-07-08T18:34:10.672Z,27.70
2018-07-08T18:37:44.728Z,27.60
2018-07-08T18:41:17.999Z,27.50
2018-07-08T18:44:51.288Z,27.40
2018-07-08T18:48:24.826Z,27.40
2018-07-08T18:51:58.087Z,27.30
2018-07-08T18:55:31.374Z,27.20
2018-07-08T18:59:04.621Z,27.10
2018-07-08T19:02:37.860Z,27.00
2018-07-08T19:06:11.109Z,26.90
2018-07-08T19:09:44.357Z,26.80
2018-07-08T19:13:18.128Z,26.60
2018-07-08T19:16:51.459Z,26.50
2018-07-08T19:20:24.688Z,26.30
2018-07-08T19:23:57.952Z,26.20
2018-07-08T19:27:31.536Z,26.00
2018-07-08T19:31:05.383Z,25.90
2018-07-08T19:34:38.659Z,25.70
2018-07-08T19:38:11.915Z,25.60
2018-07-08T19:41:45.169Z,25.50
2018-07-08T19:45:18.440Z,25.40
2018-07-08T19:48:51.700Z,25.30
2018-07-08T19:52:25.432Z,25.20
2018-07-08T20:03:04.713Z,25.00
2018-07-08T20:10:10.992Z,24.90
2018-07-08T20:13:44.284Z,24.80
2018-07-08T20:17:17.613Z,24.80
2018-07-08T20:20:50.878Z,24.70
2018-07-08T20:24:24.219Z,24.70
2018-07-08T20:27:57.465Z,24.70
2018-07-08T20:31:30.725Z,24.60
2018-07-08T20:35:03.992Z,24.60
2018-07-08T20:38:37.516Z,24.50
2018-07-08T20:42:10.772Z,24.50
2018-07-08T20:45:44.147Z,24.40
2018-07-08T20:49:17.437Z,24.30
2018-07-08T20:56:23.976Z,24.20
2018-07-08T20:59:57.245Z,24.10
2018-07-08T21:07:03.545Z,24.00
2018-07-08T21:10:36.876Z,24.00
2018-07-08T21:14:13.289Z,23.90
2018-07-08T21:17:46.536Z,23.80
2018-07-08T21:21:19.832Z,23.80
2018-07-08T21:24:53.160Z,23.70
2018-07-08T21:28:26.416Z,23.70
2018-07-08T21:31:59.664Z,23.60
2018-07-08T21:35:32.904Z,23.50
2018-07-08T21:39:07.359Z,23.50
2018-07-08T21:42:40.589Z,23.50
2018-07-08T21:46:13.824Z,23.50
2018-07-08T21:49:47.084Z,23.60
2018-07-08T21:53:20.328Z,23.60
2018-07-08T21:56:53.581Z,23.60
2018-07-08T22:00:30.720Z,23.50
2018-07-08T22:07:42.480Z,23.50
2018-07-08T22:11:15.772Z,23.50
2018-07-08T22:14:49.100Z,23.50
2018-07-08T22:18:22.363Z,23.50
2018-07-08T22:21:55.694Z,23.50
2018-07-08T22:25:28.927Z,23.40
2018-07-08T22:29:02.199Z,23.40
2018-07-08T22:32:35.441Z,23.40
2018-07-08T22:36:08.664Z,23.40
2018-07-08T22:39:41.910Z,23.30
2018-07-08T22:43:15.200Z,23.20
2018-07-08T22:46:48.439Z,23.20
2018-07-08T22:50:21.680Z,23.20
2018-07-08T22:53:55.388Z,23.20
2018-07-08T22:57:28.629Z,23.20
2018-07-08T23:01:13.120Z,23.20
2018-07-08T23:04:46.437Z,23.10
2018-07-08T23:08:19.688Z,23.10
2018-07-08T23:11:52.920Z,23.10
2018-07-08T23:15:26.170Z,23.10
2018-07-08T23:18:59.495Z,23.10
2018-07-08T23:22:43.995Z,23.00
2018-07-08T23:26:17.240Z,23.00
2018-07-08T23:29:50.488Z,22.90
2018-07-08T23:33:23.730Z,22.80
2018-07-08T23:36:57.000Z,22.70
2018-07-08T23:40:30.256Z,22.70
2018-07-08T23:44:03.500Z,22.60
2018-07-08T23:47:36.738Z,22.50
2018-07-08T23:51:09.986Z,22.50
2018-07-08T23:54:43.226Z,22.30
2018-07-08T23:58:16.492Z,22.30
